CTL weather

Charleville Airport
Charleville, Queensland, Australia

Public forecast

Using degrees Celsius for public forecast. Weather courtesy of forecast.io.

Current aviation weather report (METAR) for Charleville Airport

Retrieved 2019/10/20 22:00 UTC (35 minutes ago):

YBCV 202200Z AUTO 12015KT 9999 // NCD 21/M07 Q1023

Closest aviation forecast (TAF) to Charleville Airport

Closest forecast is Rockhampton Airport, 292.8 nm (542.3 km) NE. Retrieved 2019/10/20 18:36 UTC (4 hours ago):

TAF YBRK 201728Z 2018/2118 14007KT 9999 SCT020 FM202300 11014KT 9999 FEW035 FM211200 13009KT 9999 SCT020